If you wish to contribute or participate in the discussions about articles you are invited to join SKYbrary as a registered user

 Actions

Victoria International

From SKYbrary Wiki

CYYJ
Airport
ICAO: CYYJ
Summary
Name Victoria International
Region North America
Territory Canada CA.gif
Location North Saanich, British Columbia
Serving
Coordinates 48° 38' 37.60" N, 123° 25' 47.26" W
Runways
Designator Length Width Surface ROPS
2/20 1532 m5,026.247 ft
61 m200.131 ft
ASP no/no
9/27 2134 m7,001.312 ft
61 m200.131 ft
ASP yes/yes
13/31 1525 m5,003.281 ft
61 m200.131 ft
ASP yes/yes


METAR
Observation CYYJ 111000Z 29006KT 20SM FEW035 FEW072 BKN090 OVC110 08/04 A3011 RMK SC1AC2AC3AC3 SC TR SLP199
Station Victoria Int. Airport, B. C.
Date/Time 11 April 2019 10:00:00
Wind direction 290°
Wind speed 06 kts
Lowest cloud amount few clouds
Temperature 8°C
Dew point 4°C
Humidity 75%
QNH hPa
Weather condition n/a


Victoria International Airport

ICAO: CYYJ IATA: YYJ

Description

Victoria International Airport serves Victoria, British Columbia, Canada. It is 12 nm22,224 m
22.224 km
72,913.386 ft
north northwest of the city, in North Saanich, quite close to the town of Sidney on the Saanich Peninsula.

Climatology

Temperate Marine climate/Oceanic climate (Köppen climate classification Cfb). Moderately cool summer and comparatively warm winter.

Maps

Terrain

Loading map...

Airport Layout

Loading map...


Accidents & Serious Incidents at or in vicinity of CYYJ

None on SKYbrary